Time;durP1;ratioP1;P1;durP2;ratioP2;P2;SDS_P1;SDS_P2;PMS_P1;PMS_P2;Temp;Humidity;BMP_temperature;BMP_pressure;BME280_temperature;BME280_humidity;BME280_pressure;Samples;Min_cycle;Max_cycle;Signal;HPM_P1;HPM_P2
2022/09/19 00:01:33;;;;;;;12.23;2.35;;;12.00;89.10;;;;;;5016802;28;19912;-48
2022/09/19 00:04:11;;;;;;;12.27;2.40;;;11.90;89.10;;;;;;5050706;28;20421;-47
2022/09/19 00:06:39;;;;;;;13.48;2.90;;;12.00;89.10;;;;;;5050541;28;20040;-47
2022/09/19 00:09:09;;;;;;;14.23;2.65;;;11.90;88.90;;;;;;5050456;28;20021;-48
2022/09/19 00:11:38;;;;;;;14.07;2.78;;;11.90;88.90;;;;;;5033170;28;20025;-47
2022/09/19 00:14:05;;;;;;;;;;;11.90;88.90;;;;;;5051122;28;20078;-47
2022/09/19 00:16:38;;;;;;;9.70;2.05;;;11.90;88.80;;;;;;5050457;28;20543;-49
2022/09/19 00:19:11;;;;;;;10.65;2.00;;;11.90;88.80;;;;;;5050227;28;20032;-49
2022/09/19 00:21:40;;;;;;;15.48;2.45;;;11.90;88.80;;;;;;5050406;28;20094;-47
2022/09/19 00:26:56;;;;;;;14.80;2.40;;;11.70;88.80;;;;;;5050092;28;20818;-48
2022/09/19 00:29:24;;;;;;;11.18;2.00;;;11.70;88.70;;;;;;5032650;28;20174;-47
2022/09/19 00:31:52;;;;;;;13.90;2.90;;;11.70;88.60;;;;;;5049818;28;20460;-47
2022/09/19 00:34:21;;;;;;;19.70;3.63;;;11.70;88.70;;;;;;5032702;28;20033;-47
2022/09/19 00:36:48;;;;;;;16.02;2.50;;;11.70;88.70;;;;;;5032681;28;20169;-46
2022/09/19 00:39:17;;;;;;;8.95;2.50;;;11.70;88.80;;;;;;5032485;28;20025;-48
2022/09/19 00:41:47;;;;;;;11.23;1.35;;;11.80;89.20;;;;;;5032653;28;20025;-48
2022/09/19 00:44:25;;;;;;;;;;;11.90;89.70;;;;;;5050280;28;20033;-47
2022/09/19 00:47:05;;;;;;;6.18;1.40;;;11.90;89.90;;;;;;5049449;28;19931;-47
2022/09/19 00:49:37;;;;;;;7.22;1.10;;;11.90;89.80;;;;;;5032290;28;20066;-46
2022/09/19 00:52:13;;;;;;;8.70;1.65;;;11.90;89.60;;;;;;5050175;28;20040;-46
2022/09/19 00:54:42;;;;;;;9.80;1.08;;;11.80;89.30;;;;;;5050078;28;20028;-45
2022/09/19 00:57:12;;;;;;;9.75;1.48;;;11.80;89.30;;;;;;5049481;28;20426;-47
2022/09/19 00:59:40;;;;;;;8.93;1.92;;;11.80;89.30;;;;;;5049789;28;20021;-48
2022/09/19 01:02:08;;;;;;;3.60;1.00;;;11.70;89.40;;;;;;5050008;28;20024;-46
2022/09/19 01:04:36;;;;;;;7.65;1.05;;;11.80;89.50;;;;;;5032164;28;20021;-46
2022/09/19 01:07:22;;;;;;;3.85;0.70;;;11.70;89.60;;;;;;5049754;28;20353;-49
2022/09/19 01:10:03;;;;;;;8.02;1.52;;;11.70;89.80;;;;;;5049670;28;20025;-47
2022/09/19 01:12:47;;;;;;;10.63;1.42;;;11.70;89.80;;;;;;5049689;28;20024;-46
2022/09/19 01:15:53;;;;;;;5.88;0.90;;;11.70;90.00;;;;;;5032029;28;20020;-49
2022/09/19 01:18:28;;;;;;;7.57;1.00;;;11.60;90.00;;;;;;5049308;28;20342;-48
2022/09/19 01:24:30;;;;;;;8.57;1.00;;;11.60;90.20;;;;;;5049479;28;20048;-56
2022/09/19 01:27:19;;;;;;;14.10;2.60;;;11.60;90.50;;;;;;5031706;28;20087;-61
2022/09/19 01:29:49;;;;;;;6.82;1.45;;;11.70;91.00;;;;;;5032002;28;20123;-54
2022/09/19 01:32:22;;;;;;;10.57;1.27;;;11.70;91.20;;;;;;5047510;28;20098;-53
2022/09/19 01:35:02;;;;;;;9.63;1.30;;;11.70;91.30;;;;;;5040857;28;20031;-51
2022/09/19 01:37:43;;;;;;;9.13;1.73;;;11.80;91.30;;;;;;5058059;28;20025;-48
2022/09/19 01:40:12;;;;;;;5.43;0.80;;;11.70;91.30;;;;;;5069184;28;20115;-48
2022/09/19 01:42:59;;;;;;;8.50;1.17;;;11.70;91.20;;;;;;5064897;28;20096;-52
2022/09/19 01:45:37;;;;;;;4.75;1.13;;;11.60;91.10;;;;;;5048689;28;20047;-49
2022/09/19 01:48:24;;;;;;;5.05;1.77;;;11.50;91.10;;;;;;5049122;28;20022;-51
2022/09/19 01:51:18;;;;;;;3.38;1.15;;;11.40;91.10;;;;;;5031560;28;20422;-50
2022/09/19 01:54:15;;;;;;;4.82;1.35;;;11.40;91.10;;;;;;5031653;28;20040;-52
2022/09/19 01:57:07;;;;;;;4.85;0.70;;;11.30;91.10;;;;;;5049239;28;20087;-54
2022/09/19 01:59:54;;;;;;;3.28;1.10;;;11.20;91.10;;;;;;5030917;28;20412;-49
2022/09/19 02:02:47;;;;;;;5.10;0.98;;;11.20;91.10;;;;;;5031550;28;20441;-51
2022/09/19 02:05:37;;;;;;;2.92;0.82;;;11.00;91.00;;;;;;5048946;28;20033;-49
2022/09/19 02:08:17;;;;;;;3.72;0.80;;;10.90;91.20;;;;;;5032474;28;20100;-51
2022/09/19 02:10:46;;;;;;;;;;;10.90;91.20;;;;;;5035851;28;20048;-49
2022/09/19 02:13:15;;;;;;;4.47;0.80;;;10.80;91.10;;;;;;5052898;28;19913;-50
2022/09/19 02:15:47;;;;;;;7.30;1.13;;;10.70;91.10;;;;;;5035422;28;20475;-52
2022/09/19 02:18:34;;;;;;;7.75;1.77;;;10.70;91.10;;;;;;5052795;28;20184;-48
2022/09/19 02:21:06;;;;;;;5.68;0.80;;;10.60;91.10;;;;;;5035036;28;20441;-50
2022/09/19 02:23:39;;;;;;;3.83;0.70;;;10.50;91.20;;;;;;5035174;28;20032;-49
2022/09/19 02:26:09;;;;;;;4.07;0.82;;;10.40;91.20;;;;;;5052601;28;20013;-53
2022/09/19 02:28:41;;;;;;;6.03;1.48;;;10.40;91.20;;;;;;5052795;28;20360;-50
2022/09/19 02:31:11;;;;;;;2.67;0.80;;;10.40;91.20;;;;;;5052284;28;20024;-49
2022/09/19 02:33:42;;;;;;;3.28;0.82;;;10.40;91.30;;;;;;5034906;28;20029;-53
2022/09/19 02:36:16;;;;;;;3.33;0.98;;;10.40;91.20;;;;;;5052644;28;20033;-50
2022/09/19 02:39:06;;;;;;;6.60;1.42;;;10.30;91.20;;;;;;5052447;28;20029;-51
2022/09/19 02:41:43;;;;;;;;;;;10.20;91.20;;;;;;4994375;28;20041;-51
2022/09/19 02:44:31;;;;;;;3.85;1.55;;;10.20;91.20;;;;;;5035072;28;20001;-49
2022/09/19 02:47:30;;;;;;;3.97;0.85;;;10.20;91.30;;;;;;5045165;28;20132;-55
2022/09/19 02:50:07;;;;;;;4.15;0.80;;;10.10;91.20;;;;;;5047333;28;20033;-49
2022/09/19 02:52:37;;;;;;;8.98;1.10;;;10.10;91.30;;;;;;5052308;28;20029;-52
2022/09/19 02:55:32;;;;;;;4.40;1.02;;;10.00;91.30;;;;;;5052211;28;20033;-51
2022/09/19 02:58:02;;;;;;;4.25;0.90;;;10.00;91.30;;;;;;5051814;28;20468;-52
2022/09/19 03:00:32;;;;;;;3.33;1.10;;;10.00;91.40;;;;;;5034561;28;20099;-51
2022/09/19 03:06:00;;;;;;;6.80;1.10;;;9.90;91.40;;;;;;5038410;28;20033;-51
2022/09/19 03:08:36;;;;;;;6.65;1.83;;;9.90;91.40;;;;;;5034617;28;20025;-51
2022/09/19 03:11:08;;;;;;;7.60;1.60;;;9.90;91.60;;;;;;5051660;28;20056;-50
2022/09/19 03:13:41;;;;;;;13.35;2.15;;;10.00;91.80;;;;;;5034127;28;20112;-51
2022/09/19 03:16:13;;;;;;;14.45;3.22;;;10.00;91.80;;;;;;5051736;28;20072;-52
2022/09/19 03:18:43;;;;;;;7.70;2.08;;;10.10;92.00;;;;;;5034199;28;20112;-50
2022/09/19 03:21:12;;;;;;;10.48;2.38;;;10.20;92.10;;;;;;5034115;28;20116;-49
2022/09/19 03:23:47;;;;;;;16.38;3.97;;;10.20;92.10;;;;;;5051872;28;20029;-51
2022/09/19 03:26:20;;;;;;;13.75;2.42;;;10.20;92.20;;;;;;5033998;28;20100;-53
2022/09/19 03:28:47;;;;;;;14.93;2.85;;;10.30;92.30;;;;;;5051430;28;20017;-51
2022/09/19 03:31:14;;;;;;;20.27;3.60;;;10.30;92.20;;;;;;5051608;28;20025;-50
2022/09/19 03:33:40;;;;;;;10.90;3.08;;;10.40;92.40;;;;;;5050771;28;20025;-51
2022/09/19 03:36:08;;;;;;;9.90;2.00;;;10.40;92.40;;;;;;5051204;28;20369;-52
2022/09/19 03:38:45;;;;;;;15.93;2.63;;;10.50;92.40;;;;;;5051230;28;20025;-49
2022/09/19 03:41:14;;;;;;;13.40;2.50;;;10.50;92.40;;;;;;5033544;28;20048;-52
2022/09/19 03:43:44;;;;;;;11.23;2.35;;;10.60;92.40;;;;;;5051139;28;20020;-52
2022/09/19 03:46:13;;;;;;;15.80;3.97;;;10.60;92.40;;;;;;5028761;28;20052;-49
2022/09/19 03:48:46;;;;;;;12.63;3.58;;;10.60;92.30;;;;;;5016376;28;20048;-54
2022/09/19 03:51:17;;;;;;;14.23;3.47;;;10.60;92.20;;;;;;5051046;28;20047;-55
2022/09/19 03:53:43;;;;;;;15.35;3.35;;;10.60;92.20;;;;;;5050555;28;20055;-53
2022/09/19 03:56:12;;;;;;;13.80;2.38;;;10.70;92.20;;;;;;5047576;28;20036;-53
2022/09/19 03:58:40;;;;;;;14.70;2.47;;;10.60;92.10;;;;;;5024309;28;20025;-55
2022/09/19 04:01:08;;;;;;;13.23;2.83;;;10.70;92.10;;;;;;5039560;28;20346;-55
2022/09/19 04:03:36;;;;;;;12.25;2.60;;;10.70;92.00;;;;;;5006750;28;20020;-54
2022/09/19 04:06:04;;;;;;;17.95;2.92;;;10.70;92.00;;;;;;5041306;28;20021;-51
2022/09/19 04:08:33;;;;;;;12.32;2.40;;;10.70;92.00;;;;;;5022591;28;20315;-52
2022/09/19 04:10:59;;;;;;;10.35;2.83;;;10.70;91.90;;;;;;5022219;28;20621;-54
2022/09/19 04:13:28;;;;;;;13.00;2.97;;;10.70;91.90;;;;;;5039261;28;20108;-50
2022/09/19 04:15:55;;;;;;;8.13;1.88;;;10.70;91.90;;;;;;5040299;28;20326;-52
2022/09/19 04:18:22;;;;;;;14.27;2.92;;;10.70;91.90;;;;;;5044049;28;20040;-51
2022/09/19 04:20:51;;;;;;;13.00;2.80;;;10.70;91.90;;;;;;5024756;28;20043;-56
2022/09/19 04:23:18;;;;;;;9.68;2.47;;;10.60;91.90;;;;;;5050623;28;20025;-54
2022/09/19 04:25:46;;;;;;;6.35;2.20;;;10.60;92.00;;;;;;5044881;28;20025;-53
2022/09/19 04:28:17;;;;;;;8.45;2.30;;;10.60;91.90;;;;;;5044467;28;20013;-49
2022/09/19 04:30:43;;;;;;;13.80;3.30;;;10.60;91.90;;;;;;5038069;28;20611;-52
2022/09/19 04:33:13;;;;;;;13.25;2.85;;;10.50;91.90;;;;;;5039568;28;20025;-50
2022/09/19 04:35:43;;;;;;;17.67;2.65;;;10.70;92.30;;;;;;5023335;28;20021;-49
2022/09/19 04:38:20;;;;;;;15.68;4.53;;;10.80;92.60;;;;;;5039972;28;20025;-52
2022/09/19 04:40:48;;;;;;;15.50;2.75;;;10.90;92.50;;;;;;5023755;28;20120;-53
2022/09/19 04:43:18;;;;;;;16.08;4.40;;;10.90;92.50;;;;;;5038935;28;20025;-53
2022/09/19 04:45:49;;;;;;;12.93;2.90;;;10.90;92.40;;;;;;5038594;28;20045;-51
2022/09/19 04:48:16;;;;;;;17.70;3.30;;;11.00;92.40;;;;;;5038653;28;20099;-51
2022/09/19 04:50:47;;;;;;;14.55;3.40;;;11.00;92.40;;;;;;5040618;28;20537;-51
2022/09/19 04:53:16;;;;;;;9.63;2.17;;;11.00;92.20;;;;;;5040529;28;20029;-52
2022/09/19 04:55:44;;;;;;;9.55;2.22;;;10.90;92.10;;;;;;5018129;28;20041;-51
2022/09/19 04:58:15;;;;;;;14.13;2.40;;;10.90;92.10;;;;;;5035702;28;20052;-50
2022/09/19 05:00:50;;;;;;;;;;;10.80;92.00;;;;;;5033830;28;20450;-55
2022/09/19 05:03:17;;;;;;;11.73;2.38;;;10.70;91.80;;;;;;5057690;28;19908;-50
2022/09/19 05:05:50;;;;;;;12.80;2.95;;;10.70;91.80;;;;;;5043791;28;20028;-50
2022/09/19 05:08:28;;;;;;;8.65;2.55;;;10.60;91.70;;;;;;5060536;28;20017;-52
2022/09/19 05:10:57;;;;;;;11.43;2.20;;;10.60;91.80;;;;;;5050699;28;20021;-50
2022/09/19 05:13:30;;;;;;;11.27;3.35;;;10.60;91.70;;;;;;5027400;28;20021;-51
2022/09/19 05:15:58;;;;;;;7.63;1.73;;;10.40;91.70;;;;;;5031444;28;20043;-55
2022/09/19 05:18:24;;;;;;;10.90;2.50;;;10.40;91.70;;;;;;5028531;28;20063;-51
2022/09/19 05:20:52;;;;;;;13.38;2.65;;;10.40;91.70;;;;;;5046089;28;20040;-51
2022/09/19 05:23:20;;;;;;;8.57;2.33;;;10.40;91.70;;;;;;5048597;28;20047;-50
2022/09/19 05:25:48;;;;;;;12.90;2.42;;;10.30;91.60;;;;;;5047431;28;20024;-50
2022/09/19 05:28:13;;;;;;;9.50;2.22;;;10.30;91.60;;;;;;5048286;28;20036;-49
2022/09/19 05:30:46;;;;;;;13.35;2.40;;;10.20;91.50;;;;;;5047059;28;20021;-49
2022/09/19 05:33:13;;;;;;;8.05;1.88;;;10.20;91.40;;;;;;5031064;28;20040;-51
2022/09/19 05:35:40;;;;;;;12.20;2.30;;;10.10;91.50;;;;;;5030798;28;20115;-52
2022/09/19 05:38:07;;;;;;;11.73;2.92;;;10.10;91.50;;;;;;5042158;28;20353;-50
2022/09/19 05:40:36;;;;;;;10.25;3.17;;;10.10;91.50;;;;;;5030318;28;20025;-51
2022/09/19 05:43:03;;;;;;;9.68;2.53;;;10.10;91.60;;;;;;5031718;28;20028;-50
2022/09/19 05:45:31;;;;;;;12.00;2.60;;;10.00;91.60;;;;;;5050122;28;20083;-51
2022/09/19 05:48:06;;;;;;;9.98;2.10;;;10.10;91.60;;;;;;5050560;28;20523;-49
2022/09/19 05:50:33;;;;;;;8.85;3.03;;;10.10;91.60;;;;;;5032734;28;20039;-50
2022/09/19 05:55:49;;;;;;;10.68;1.95;;;10.10;91.60;;;;;;5052053;28;20483;-51
2022/09/19 05:58:18;;;;;;;8.40;2.75;;;10.10;91.60;;;;;;5052901;28;20036;-52
2022/09/19 06:00:45;;;;;;;9.23;3.33;;;10.10;91.60;;;;;;5050774;28;20036;-50
2022/09/19 06:03:21;;;;;;;11.85;2.58;;;10.10;91.60;;;;;;5051849;28;20251;-51
2022/09/19 06:05:59;;;;;;;14.35;2.70;;;10.20;91.60;;;;;;5030657;28;20021;-54
2022/09/19 06:08:26;;;;;;;11.77;2.90;;;10.20;91.70;;;;;;5032883;28;20034;-50
2022/09/19 06:10:53;;;;;;;11.32;2.72;;;10.20;91.60;;;;;;5015348;28;20029;-50
2022/09/19 06:13:22;;;;;;;8.65;2.22;;;10.20;91.60;;;;;;5032399;28;20032;-53
2022/09/19 06:15:49;;;;;;;7.65;2.35;;;10.30;91.60;;;;;;5032868;28;20033;-49
2022/09/19 06:18:16;;;;;;;11.07;2.35;;;10.30;91.60;;;;;;5048559;28;20143;-49
2022/09/19 06:20:44;;;;;;;12.07;2.78;;;10.40;91.60;;;;;;5049686;28;20029;-50
2022/09/19 06:23:11;;;;;;;10.70;2.63;;;10.40;91.70;;;;;;5068798;28;20025;-50
2022/09/19 06:25:39;;;;;;;22.65;5.38;;;10.40;92.00;;;;;;5058146;28;20611;-51
2022/09/19 06:28:10;;;;;;;28.02;3.80;;;10.80;92.90;;;;;;5049326;28;20397;-49
2022/09/19 06:30:37;;;;;;;20.73;4.72;;;11.00;92.80;;;;;;5045731;28;20031;-52
2022/09/19 06:33:07;;;;;;;22.85;3.70;;;11.30;93.00;;;;;;5027530;28;20044;-51
2022/09/19 06:35:34;;;;;;;20.27;3.67;;;11.40;92.90;;;;;;5032657;28;20037;-49
2022/09/19 06:38:07;;;;;;;20.90;3.97;;;11.50;92.60;;;;;;5051889;28;20025;-51
2022/09/19 06:40:37;;;;;;;20.52;3.47;;;11.60;92.60;;;;;;5051559;28;20021;-53
2022/09/19 06:43:06;;;;;;;19.48;3.13;;;11.80;92.30;;;;;;5031961;28;20026;-51
2022/09/19 06:45:38;;;;;;;18.50;3.20;;;11.90;92.10;;;;;;5047352;28;20084;-48
2022/09/19 06:48:06;;;;;;;17.58;4.15;;;12.10;92.10;;;;;;5051903;28;20350;-49
2022/09/19 06:50:33;;;;;;;21.27;4.28;;;12.20;91.90;;;;;;5051561;28;20032;-50
2022/09/19 06:52:59;;;;;;;21.80;3.90;;;12.40;91.70;;;;;;5019780;28;20049;-49
2022/09/19 06:55:28;;;;;;;22.33;4.63;;;12.40;91.20;;;;;;5048530;28;20060;-49
2022/09/19 06:58:02;;;;;;;20.27;4.25;;;12.60;91.10;;;;;;5032013;28;20112;-53
2022/09/19 07:00:32;;;;;;;24.85;5.68;;;12.70;90.90;;;;;;5029973;28;20524;-51
2022/09/19 07:03:03;;;;;;;16.10;3.60;;;12.80;90.70;;;;;;5044186;28;20146;-50
2022/09/19 07:05:34;;;;;;;20.42;4.05;;;12.80;90.40;;;;;;5049163;28;20025;-49
2022/09/19 07:08:04;;;;;;;18.50;3.90;;;12.80;90.30;;;;;;5033038;28;20048;-49
2022/09/19 07:10:30;;;;;;;;;;;12.90;90.30;;;;;;5048693;28;20485;-51
2022/09/19 07:13:02;;;;;;;20.48;4.97;;;13.00;90.20;;;;;;5048124;28;20031;-47
2022/09/19 07:15:36;;;;;;;25.00;4.50;;;13.10;90.00;;;;;;5050092;28;20106;-48
2022/09/19 07:18:08;;;;;;;21.55;5.25;;;13.20;89.90;;;;;;5032727;28;20099;-52
2022/09/19 07:20:38;;;;;;;15.93;4.28;;;13.20;89.60;;;;;;5049974;28;20032;-47
2022/09/19 07:23:13;;;;;;;18.58;4.75;;;13.30;89.40;;;;;;5043444;28;20037;-50
2022/09/19 07:25:41;;;;;;;18.80;3.60;;;13.30;89.30;;;;;;5032773;28;20025;-51
2022/09/19 07:28:09;;;;;;;20.40;4.13;;;13.40;89.10;;;;;;5050139;28;20025;-50
2022/09/19 07:30:38;;;;;;;24.23;4.55;;;13.40;88.60;;;;;;5049836;28;20036;-52
2022/09/19 07:33:07;;;;;;;21.43;5.03;;;13.60;88.10;;;;;;5050033;28;20037;-46
2022/09/19 07:35:35;;;;;;;21.15;4.60;;;13.80;88.30;;;;;;5050706;28;20035;-46
2022/09/19 07:38:04;;;;;;;16.83;3.55;;;14.10;87.90;;;;;;5047153;28;20033;-45
2022/09/19 07:40:33;;;;;;;22.80;5.68;;;14.40;86.80;;;;;;5028108;28;20499;-45
2022/09/19 07:43:04;;;;;;;20.90;4.75;;;14.40;85.20;;;;;;5050323;28;20021;-47
2022/09/19 07:45:34;;;;;;;16.13;3.92;;;14.30;84.50;;;;;;5047803;28;20028;-46
2022/09/19 07:48:02;;;;;;;16.08;3.58;;;14.10;84.70;;;;;;5049604;28;20029;-44
2022/09/19 07:50:30;;;;;;;26.05;4.88;;;14.00;85.00;;;;;;5046944;28;20120;-44
2022/09/19 07:53:02;;;;;;;19.13;4.18;;;14.10;85.00;;;;;;5046462;28;20100;-45
2022/09/19 07:55:29;;;;;;;20.27;4.32;;;14.40;84.50;;;;;;5019125;28;20036;-45
2022/09/19 07:57:58;;;;;;;16.58;3.33;;;14.80;83.90;;;;;;5032391;28;20040;-46
2022/09/19 08:00:27;;;;;;;18.35;4.60;;;15.10;83.30;;;;;;5049926;28;20024;-46
2022/09/19 08:02:54;;;;;;;15.02;3.88;;;15.30;82.10;;;;;;5049906;28;20052;-45
2022/09/19 08:05:21;;;;;;;17.70;3.88;;;15.50;81.40;;;;;;5048833;28;20022;-45
2022/09/19 08:07:47;;;;;;;13.45;3.63;;;15.70;80.40;;;;;;5030438;28;20112;-45
2022/09/19 08:10:15;;;;;;;26.23;4.60;;;15.80;80.00;;;;;;5040926;28;20021;-45
2022/09/19 08:12:44;;;;;;;19.45;5.10;;;15.90;78.70;;;;;;5027256;28;20067;-49
2022/09/19 08:15:18;;;;;;;16.20;4.17;;;15.90;77.30;;;;;;5049408;28;20112;-45
2022/09/19 08:18:19;;;;;;;17.70;4.15;;;16.00;78.20;;;;;;5042468;28;20040;-45
2022/09/19 08:20:46;;;;;;;15.93;3.58;;;16.20;78.70;;;;;;5045347;28;20021;-44
2022/09/19 08:23:16;;;;;;;23.30;4.20;;;15.70;79.00;;;;;;5039246;28;20049;-45
2022/09/19 08:25:46;;;;;;;18.75;4.22;;;15.60;79.50;;;;;;5019670;28;20035;-44
2022/09/19 08:28:14;;;;;;;13.50;3.20;;;15.50;79.10;;;;;;5048050;28;20029;-47
2022/09/19 08:30:45;;;;;;;18.05;5.22;;;15.90;78.90;;;;;;5041433;28;20029;-46
2022/09/19 08:33:12;;;;;;;25.25;5.88;;;16.20;78.40;;;;;;5043650;28;20040;-48
2022/09/19 08:35:39;;;;;;;21.55;4.53;;;16.50;76.80;;;;;;5044078;28;20102;-45
2022/09/19 08:38:07;;;;;;;19.50;5.93;;;16.50;76.40;;;;;;5049384;28;20442;-45
2022/09/19 08:40:51;;;;;;;14.68;3.80;;;16.90;77.10;;;;;;5044501;28;20084;-49
2022/09/19 08:43:35;;;;;;;16.38;3.70;;;17.10;76.00;;;;;;5048064;28;20028;-45
2022/09/19 08:46:38;;;;;;;18.30;4.05;;;17.20;74.60;;;;;;5042979;28;20063;-45
2022/09/19 08:49:14;;;;;;;21.23;4.35;;;17.40;74.30;;;;;;5035423;28;20029;-45
2022/09/19 08:52:12;;;;;;;14.45;4.05;;;17.30;74.10;;;;;;5049198;28;20025;-46
2022/09/19 08:54:57;;;;;;;19.00;4.95;;;17.20;74.60;;;;;;5031371;28;20604;-47
2022/09/19 08:57:33;;;;;;;16.10;5.25;;;17.10;74.30;;;;;;5048700;28;20033;-45
2022/09/19 09:00:20;;;;;;;15.85;3.67;;;17.40;75.30;;;;;;5030509;28;20124;-46
2022/09/19 09:03:06;;;;;;;15.65;4.45;;;17.10;74.60;;;;;;5031053;28;20525;-48
2022/09/19 09:05:55;;;;;;;11.63;4.28;;;17.10;73.90;;;;;;5048209;28;20036;-44
2022/09/19 09:08:46;;;;;;;14.07;4.00;;;17.40;73.60;;;;;;5030930;28;20085;-49
2022/09/19 09:11:30;;;;;;;12.85;3.08;;;17.40;73.00;;;;;;5047936;28;20055;-45
2022/09/19 09:14:50;;;;;;;14.07;3.90;;;17.40;73.00;;;;;;5048238;28;20027;-45
2022/09/19 09:17:47;;;;;;;20.23;4.78;;;17.60;72.90;;;;;;4972586;28;20053;-49
2022/09/19 09:21:07;;;;;;;18.10;3.72;;;17.40;74.00;;;;;;5045659;28;20120;-45
2022/09/19 09:23:41;;;;;;;13.25;3.30;;;16.90;75.00;;;;;;4973879;28;20036;-46
2022/09/19 09:26:14;;;;;;;16.00;3.72;;;17.00;74.90;;;;;;5039609;28;20121;-44
2022/09/19 09:28:53;;;;;;;13.75;3.17;;;17.10;73.30;;;;;;5025919;28;20025;-48
2022/09/19 09:31:27;;;;;;;22.52;4.93;;;17.20;71.90;;;;;;5042106;28;20082;-45
2022/09/19 09:34:07;;;;;;;14.68;3.88;;;17.40;71.80;;;;;;5044766;28;20041;-45
2022/09/19 09:37:06;;;;;;;13.93;3.55;;;17.50;73.00;;;;;;5031701;28;20442;-46
2022/09/19 09:40:00;;;;;;;14.70;3.97;;;17.40;73.10;;;;;;4999677;28;20116;-47
2022/09/19 09:42:37;;;;;;;15.63;4.03;;;17.40;73.20;;;;;;5034042;28;20029;-46
2022/09/19 09:45:40;;;;;;;14.90;4.85;;;17.10;73.90;;;;;;5030591;28;20036;-44
2022/09/19 09:48:32;;;;;;;11.50;3.65;;;16.90;73.90;;;;;;5040564;28;20056;-46
2022/09/19 09:51:36;;;;;;;16.13;3.47;;;16.60;74.60;;;;;;5031335;28;20025;-48
2022/09/19 09:57:52;;;;;;;15.60;4.00;;;17.00;74.60;;;;;;5029049;28;20091;-47
2022/09/19 10:03:34;;;;;;;17.58;4.57;;;16.90;74.30;;;;;;5032007;28;20036;-47
2022/09/19 10:06:27;;;;;;;23.52;4.63;;;17.10;74.00;;;;;;5028939;28;20086;-47
2022/09/19 10:09:00;;;;;;;17.83;4.63;;;17.30;72.60;;;;;;5013578;28;20090;-45
2022/09/19 10:12:04;;;;;;;14.13;4.00;;;17.50;72.60;;;;;;5029944;28;20041;-47
2022/09/19 10:14:33;;;;;;;20.00;3.85;;;17.30;71.70;;;;;;5006350;28;20126;-48
2022/09/19 10:17:01;;;;;;;20.88;6.28;;;17.40;71.50;;;;;;5044400;28;20064;-52
2022/09/19 10:19:36;;;;;;;13.07;3.08;;;17.20;71.70;;;;;;5043296;28;20033;-47
2022/09/19 10:22:07;;;;;;;19.52;4.13;;;17.30;72.60;;;;;;5021037;28;20033;-46
2022/09/19 10:24:53;;;;;;;18.98;4.72;;;17.10;73.10;;;;;;5021066;28;20025;-49
2022/09/19 10:27:45;;;;;;;19.38;3.78;;;16.90;74.90;;;;;;5033023;28;20029;-45
2022/09/19 10:30:19;;;;;;;16.85;3.42;;;16.50;74.40;;;;;;5015538;28;20450;-48
2022/09/19 10:32:47;;;;;;;11.38;3.10;;;16.60;72.40;;;;;;5039537;28;20028;-44
2022/09/19 10:35:33;;;;;;;15.13;3.00;;;16.80;72.60;;;;;;5045546;28;20028;-49
2022/09/19 10:38:15;;;;;;;10.43;3.47;;;17.10;71.90;;;;;;5032753;28;20029;-44
2022/09/19 10:40:58;;;;;;;15.18;3.95;;;17.20;72.20;;;;;;5035709;28;20610;-45
2022/09/19 10:43:47;;;;;;;17.77;3.70;;;17.00;71.30;;;;;;5041688;28;20036;-47
2022/09/19 10:46:36;;;;;;;16.15;3.70;;;17.30;71.70;;;;;;5027147;28;20728;-45
2022/09/19 10:49:13;;;;;;;14.55;3.30;;;17.50;71.50;;;;;;5029090;28;20366;-47
2022/09/19 10:51:44;;;;;;;15.30;4.13;;;17.20;73.00;;;;;;5010610;28;20038;-48
2022/09/19 10:54:43;;;;;;;18.83;4.30;;;16.90;73.90;;;;;;5048814;28;20024;-51
2022/09/19 10:57:36;;;;;;;13.98;2.85;;;16.80;73.60;;;;;;5028561;28;20469;-45
2022/09/19 11:00:05;;;;;;;14.90;3.65;;;16.50;73.10;;;;;;5017877;28;20095;-46
2022/09/19 11:02:32;;;;;;;13.95;3.30;;;16.40;73.50;;;;;;5034585;28;20119;-48
2022/09/19 11:05:23;;;;;;;14.57;3.05;;;16.00;74.10;;;;;;5035742;28;20033;-50
2022/09/19 11:07:56;;;;;;;17.42;3.67;;;16.20;75.20;;;;;;5043991;28;20039;-50
2022/09/19 11:10:48;;;;;;;14.50;2.97;;;16.10;76.60;;;;;;5041508;28;20040;-44
2022/09/19 11:13:22;;;;;;;14.73;3.20;;;16.30;75.10;;;;;;5027984;28;20049;-50
2022/09/19 11:16:16;;;;;;;16.08;3.78;;;16.60;74.40;;;;;;5032765;28;20425;-45
2022/09/19 11:19:01;;;;;;;13.10;3.10;;;17.00;72.20;;;;;;5031853;28;20544;-46
2022/09/19 11:22:06;;;;;;;20.70;3.42;;;17.10;70.00;;;;;;5030929;28;20037;-45
2022/09/19 11:24:40;;;;;;;12.10;2.88;;;17.20;71.70;;;;;;5004843;28;20048;-49
2022/09/19 11:27:33;;;;;;;11.55;2.65;;;17.50;71.40;;;;;;5035215;28;20033;-45
2022/09/19 11:30:11;;;;;;;15.98;3.70;;;17.50;69.70;;;;;;5032453;28;20371;-46
2022/09/19 11:32:53;;;;;;;16.13;2.47;;;17.00;70.40;;;;;;5031375;28;20085;-46
2022/09/19 11:35:51;;;;;;;15.32;3.25;;;16.80;71.10;;;;;;5031440;28;20355;-50
2022/09/19 11:38:33;;;;;;;19.10;4.80;;;16.80;71.00;;;;;;5038273;28;20026;-47
2022/09/19 11:41:19;;;;;;;16.80;3.55;;;16.60;71.30;;;;;;5021206;28;20366;-45
2022/09/19 11:44:15;;;;;;;16.45;3.45;;;16.60;72.20;;;;;;5033549;28;20032;-46
2022/09/19 11:47:23;;;;;;;15.65;2.80;;;16.40;71.30;;;;;;5025860;28;20038;-50
2022/09/19 11:50:08;;;;;;;9.30;2.83;;;16.20;72.10;;;;;;5032625;28;20038;-45
2022/09/19 11:52:56;;;;;;;18.52;3.08;;;16.20;71.10;;;;;;5024125;28;20051;-50
2022/09/19 11:55:50;;;;;;;13.68;3.33;;;16.40;71.20;;;;;;5034404;28;20039;-48
2022/09/19 11:58:42;;;;;;;10.05;2.05;;;16.30;71.70;;;;;;5031197;28;20124;-48
2022/09/19 12:01:30;;;;;;;9.88;2.35;;;16.50;71.50;;;;;;5030655;28;20029;-46
2022/09/19 12:04:32;;;;;;;13.93;4.10;;;16.40;70.70;;;;;;5022356;28;20021;-47
2022/09/19 12:07:25;;;;;;;8.80;2.80;;;16.70;69.40;;;;;;5031968;28;20025;-47
2022/09/19 12:10:00;;;;;;;12.05;2.83;;;16.90;68.80;;;;;;5030937;28;20038;-49
2022/09/19 12:12:30;;;;;;;14.75;2.95;;;16.60;68.10;;;;;;5031385;28;20029;-47
2022/09/19 12:15:22;;;;;;;12.77;2.42;;;16.60;67.90;;;;;;5035451;28;20111;-47
2022/09/19 12:18:13;;;;;;;17.20;2.25;;;16.60;68.70;;;;;;5037484;28;20048;-44
2022/09/19 12:20:58;;;;;;;9.68;2.83;;;16.40;68.40;;;;;;5041002;28;20476;-45
2022/09/19 12:26:42;;;;;;;22.80;5.07;;;16.20;68.00;;;;;;5034960;28;20481;-48
2022/09/19 12:29:45;;;;;;;13.02;3.45;;;16.40;68.10;;;;;;5030189;28;20069;-45
2022/09/19 12:32:44;;;;;;;13.95;3.13;;;16.60;69.40;;;;;;5012563;28;20038;-47
2022/09/19 12:35:57;;;;;;;10.45;3.30;;;16.60;68.30;;;;;;5031193;28;20071;-45
2022/09/19 12:39:02;;;;;;;17.17;2.85;;;16.80;68.60;;;;;;5014710;28;20032;-47
2022/09/19 12:42:08;;;;;;;13.18;3.28;;;16.50;68.50;;;;;;5069139;28;20029;-47
2022/09/19 12:45:09;;;;;;;11.07;3.15;;;16.30;69.60;;;;;;5006917;28;20026;-46
2022/09/19 12:48:14;;;;;;;21.05;2.78;;;16.20;69.90;;;;;;5007227;28;20080;-46
2022/09/19 12:50:49;;;;;;;14.25;2.83;;;16.10;69.20;;;;;;5007727;28;20112;-48
2022/09/19 12:53:47;;;;;;;13.93;2.85;;;16.30;68.20;;;;;;4990358;28;20320;-45
2022/09/19 12:56:26;;;;;;;8.88;2.42;;;16.10;68.20;;;;;;4967521;28;20395;-45
2022/09/19 12:59:12;;;;;;;13.50;2.63;;;16.00;67.80;;;;;;4979391;28;20077;-50
2022/09/19 13:02:02;;;;;;;12.10;2.65;;;16.30;69.30;;;;;;4970523;28;20040;-45
2022/09/19 13:04:59;;;;;;;11.30;2.63;;;16.00;67.00;;;;;;4987239;28;20026;-48
2022/09/19 13:08:05;;;;;;;8.70;2.38;;;15.90;66.00;;;;;;4987365;28;20485;-47
2022/09/19 13:10:40;;;;;;;15.00;3.97;;;15.90;67.00;;;;;;4966028;28;20772;-47
2022/09/19 13:13:29;;;;;;;11.38;2.70;;;15.90;67.50;;;;;;4987426;28;20073;-44
2022/09/19 13:16:17;;;;;;;9.65;2.83;;;15.90;67.20;;;;;;4987098;28;20030;-47
2022/09/19 13:24:44;;;;;;;13.15;3.08;;;16.20;66.90;;;;;;5031214;28;20147;-47
2022/09/19 13:27:11;;;;;;;15.98;3.22;;;16.30;67.70;;;;;;5036995;28;20021;-45
2022/09/19 13:29:57;;;;;;;11.65;2.28;;;16.50;68.70;;;;;;4987733;28;20494;-45
2022/09/19 13:32:34;;;;;;;15.15;3.00;;;16.40;66.50;;;;;;5033329;28;20118;-47
2022/09/19 13:35:15;;;;;;;14.90;3.35;;;16.40;66.30;;;;;;5028975;28;20037;-49
2022/09/19 13:38:15;;;;;;;14.80;3.20;;;16.40;67.20;;;;;;5028523;28;20037;-44
2022/09/19 13:41:14;;;;;;;12.88;2.22;;;16.20;67.20;;;;;;5028541;28;20021;-49
2022/09/19 13:44:10;;;;;;;16.10;2.88;;;16.10;68.40;;;;;;5027625;28;20073;-46
2022/09/19 13:46:53;;;;;;;14.30;3.67;;;15.90;66.80;;;;;;5028745;28;20049;-45
2022/09/19 13:49:31;;;;;;;10.73;2.47;;;15.70;67.60;;;;;;5016198;28;20461;-47
2022/09/19 13:52:07;;;;;;;11.00;3.35;;;15.70;68.80;;;;;;5048288;28;20047;-49
2022/09/19 13:55:02;;;;;;;16.73;3.05;;;15.90;67.70;;;;;;5048413;28;20064;-44
2022/09/19 13:57:35;;;;;;;15.88;3.45;;;16.10;66.50;;;;;;5038148;28;20057;-48
2022/09/19 14:00:29;;;;;;;13.05;3.00;;;16.40;67.30;;;;;;5048449;28;20017;-49